Terminal Aerodrome Forecast
Issued by NWS Omaha/Valley, NE

Home | Current Version | Previous Version | Graphics & Text | Print | Product List | Glossary On
Versions: 1 2 3 4 5 6 7 8 9 10 11 12 13 14 15 16 17 18 19
000
FTUS43 KOAX 171720
TAFOFK
TAF
KOFK 171720Z 1718/1818 04005KT P6SM BKN100
     FM180000 11004KT P6SM OVC090
     FM180600 13004KT P6SM -SHRA OVC080
      TEMPO 1807/1810 4SM -TSRA OVC025CB
     FM181100 13005KT P6SM OVC030=

USA.gov is the U.S. government's official web portal to all federal, state and local government web resources and services.